Time;durP1;ratioP1;P1;durP2;ratioP2;P2;SDS_P1;SDS_P2;PMS_P1;PMS_P2;Temp;Humidity;BMP_temperature;BMP_pressure;BME280_temperature;BME280_humidity;BME280_pressure;Samples;Min_cycle;Max_cycle;Signal;HPM_P1;HPM_P2
2022/08/06 00:05:18;;;;;;;6.53;4.60;;;;;;;23.86;58.13;100187.34;30027328;29;96776;-59
2022/08/06 00:20:19;;;;;;;6.35;5.05;;;;;;;23.61;59.37;100224.91;30026435;29;96747;-59
2022/08/06 00:35:20;;;;;;;5.72;4.38;;;;;;;23.23;61.75;100293.81;30024633;29;96881;-59
2022/08/06 00:50:20;;;;;;;8.37;5.00;;;;;;;22.90;63.29;100231.13;30022983;29;96830;-61
2022/08/06 01:05:21;;;;;;;7.47;5.30;;;;;;;22.68;65.08;100232.97;30022626;29;97754;-59
2022/08/06 01:20:36;;;;;;;6.47;4.90;;;;;;;22.46;66.28;100229.16;30021559;29;99819;-59
2022/08/06 01:35:40;;;;;;;5.53;4.73;;;;;;;22.42;67.33;100270.63;30019694;29;97093;-59
2022/08/06 01:50:48;;;;;;;6.40;5.80;;;;;;;22.38;68.08;100288.47;30019027;29;97151;-59
2022/08/06 02:05:50;;;;;;;11.43;7.67;;;;;;;22.17;68.30;100320.66;30025815;29;96783;-61
2022/08/06 02:20:54;;;;;;;9.63;7.37;;;;;;;21.85;68.91;100353.69;30036675;29;97257;-59
2022/08/06 02:36:12;;;;;;;6.17;5.53;;;;;;;21.49;69.51;100377.31;30035808;29;96711;-59
2022/08/06 02:51:18;;;;;;;6.37;5.20;;;;;;;21.14;69.97;100421.50;30034720;29;97464;-59
2022/08/06 03:06:20;;;;;;;5.10;4.37;;;;;;;20.76;70.32;100374.84;30032952;29;96689;-59
2022/08/06 03:21:23;;;;;;;5.00;4.17;;;;;;;20.40;70.72;100354.97;30031255;29;97211;-59
2022/08/06 03:36:23;;;;;;;4.73;3.30;;;;;;;20.07;71.67;100379.81;30026160;29;96980;-59
2022/08/06 03:51:27;;;;;;;7.05;3.95;;;;;;;19.73;71.95;100422.59;30025644;29;96729;-59
2022/08/06 04:06:28;;;;;;;6.33;4.07;;;;;;;19.26;72.34;100456.31;30024727;29;97122;-59
2022/08/06 04:21:29;;;;;;;4.80;2.20;;;;;;;19.00;73.37;100497.88;30024575;29;96887;-59
2022/08/06 04:36:29;;;;;;;4.60;2.22;;;;;;;18.13;72.83;100554.91;30022415;29;97973;-59
2022/08/06 04:51:30;;;;;;;3.60;1.98;;;;;;;17.21;73.05;100611.25;30023538;29;97431;-59
2022/08/06 05:06:42;;;;;;;2.38;1.60;;;;;;;16.77;73.47;100645.63;30021388;29;97711;-59
2022/08/06 05:21:45;;;;;;;4.03;2.37;;;;;;;16.54;74.39;100676.34;30019539;29;96846;-59
2022/08/06 05:36:45;;;;;;;3.57;2.60;;;;;;;16.42;75.47;100700.25;30022189;29;96840;-60
2022/08/06 05:51:56;;;;;;;4.50;2.80;;;;;;;16.36;75.65;100727.09;30038214;29;96798;-60
2022/08/06 06:06:57;;;;;;;4.37;3.03;;;;;;;16.33;76.09;100754.38;30036969;29;96850;-59
2022/08/06 06:22:06;;;;;;;5.78;3.53;;;;;;;16.43;76.68;100760.25;30035419;29;96652;-60
2022/08/06 06:37:27;;;;;;;5.93;3.73;;;;;;;16.62;76.72;100779.41;30034147;29;96896;-59
2022/08/06 06:52:36;;;;;;;4.77;3.60;;;;;;;16.61;76.54;100801.97;30031376;29;97384;-60
2022/08/06 07:07:40;;;;;;;5.97;4.50;;;;;;;16.67;76.51;100810.09;30032337;29;97148;-60
2022/08/06 07:22:42;;;;;;;6.10;4.63;;;;;;;16.79;76.76;100807.69;30030510;29;96717;-62
2022/08/06 07:37:50;;;;;;;6.83;5.20;;;;;;;16.95;76.58;100821.91;30027582;29;97213;-60
2022/08/06 07:52:54;;;;;;;4.93;3.60;;;;;;;17.18;76.62;100832.41;30000801;29;98221;-60
2022/08/06 08:07:54;;;;;;;4.83;3.03;;;;;;;17.57;75.93;100857.88;30025413;29;96779;-60
2022/08/06 08:22:55;;;;;;;4.75;2.72;;;;;;;17.76;74.68;100889.47;30025994;29;96753;-60
2022/08/06 08:37:55;;;;;;;4.68;3.08;;;;;;;17.86;74.25;100894.47;30023416;29;96725;-59
2022/08/06 08:53:08;;;;;;;3.65;2.60;;;;;;;18.23;72.93;100894.22;30021911;29;96712;-60
2022/08/06 09:08:11;;;;;;;2.97;2.63;;;;;;;19.30;71.59;100915.91;30020661;29;97229;-60
2022/08/06 09:23:12;;;;;;;3.80;2.43;;;;;;;19.47;69.41;100924.38;30018550;29;96574;-60
2022/08/06 09:38:14;;;;;;;;;;;;;;;19.89;68.04;100930.31;30006123;29;97239;-63
2022/08/06 09:53:17;;;;;;;5.50;2.60;;;;;;;20.72;66.30;100938.63;29903100;29;96751;-60
2022/08/06 10:08:18;;;;;;;3.53;2.37;;;;;;;21.18;63.79;100950.94;29900574;29;96758;-62
2022/08/06 10:23:18;;;;;;;4.17;2.53;;;;;;;23.02;60.92;100955.56;29964184;29;97317;-60
2022/08/06 10:38:23;;;;;;;4.93;2.53;;;;;;;24.23;54.75;100959.63;30023331;29;96895;-60
2022/08/06 10:53:23;;;;;;;6.47;2.10;;;;;;;25.83;50.69;100954.84;30030588;29;96870;-63
2022/08/06 11:08:50;;;;;;;2.65;1.75;;;;;;;28.15;43.88;100952.06;30029968;29;96731;-62
2022/08/06 11:24:00;;;;;;;2.73;1.80;;;;;;;29.09;39.07;100942.84;30028737;29;96870;-63
2022/08/06 11:39:00;;;;;;;2.10;1.63;;;;;;;28.63;37.46;100943.66;30028129;29;98750;-63
2022/08/06 11:54:12;;;;;;;4.35;1.38;;;;;;;29.64;35.49;100923.78;30027862;29;96633;-63
2022/08/06 12:09:12;;;;;;;1.27;1.07;;;;;;;28.61;35.26;100929.41;30027359;29;97765;-64
2022/08/06 12:24:13;;;;;;;1.98;0.70;;;;;;;29.54;33.51;100923.81;30009931;29;97357;-64
2022/08/06 12:39:14;;;;;;;2.03;0.63;;;;;;;29.64;31.08;100923.78;30019620;29;97288;-64
2022/08/06 12:54:16;;;;;;;2.40;0.75;;;;;;;29.63;30.84;100913.88;30021134;29;97789;-63
2022/08/06 13:09:26;;;;;;;0.93;0.70;;;;;;;29.93;29.70;100908.56;30021367;29;96738;-65
2022/08/06 13:24:28;;;;;;;1.93;0.77;;;;;;;29.29;30.43;100920.03;30015814;29;97205;-64
2022/08/06 13:39:30;;;;;;;2.43;0.90;;;;;;;28.61;30.79;100917.59;30010761;29;97105;-64
2022/08/06 13:54:31;;;;;;;2.73;1.23;;;;;;;27.35;32.69;100913.91;30018237;29;96704;-61
2022/08/06 14:09:31;;;;;;;1.60;0.80;;;;;;;27.21;33.02;100916.28;30034891;29;97542;-63
2022/08/06 14:24:31;;;;;;;2.33;1.08;;;;;;;26.90;33.26;100896.13;30022858;29;97365;-64
2022/08/06 14:39:32;;;;;;;2.38;0.90;;;;;;;26.88;33.11;100904.59;30031481;29;97416;-64
2022/08/06 14:54:32;;;;;;;2.22;0.70;;;;;;;26.07;33.29;100897.28;30032976;29;96743;-64
2022/08/06 15:09:33;;;;;;;2.47;0.82;;;;;;;25.58;33.27;100898.06;30029863;29;97343;-64
2022/08/06 15:24:34;;;;;;;3.78;0.80;;;;;;;24.92;34.47;100902.28;30029757;29;97438;-64
2022/08/06 15:39:35;;;;;;;3.27;0.90;;;;;;;24.31;34.57;100893.88;30028234;29;96823;-64
2022/08/06 15:54:35;;;;;;;1.73;0.70;;;;;;;23.90;35.57;100895.84;30027114;29;97336;-64
2022/08/06 16:09:36;;;;;;;1.30;0.70;;;;;;;23.66;36.18;100890.44;30025894;29;97049;-63
2022/08/06 16:24:37;;;;;;;2.40;0.70;;;;;;;23.53;36.57;100907.84;30023101;29;97160;-64
2022/08/06 16:39:37;;;;;;;3.90;1.70;;;;;;;23.42;36.93;100906.78;30023157;29;96865;-63
2022/08/06 16:54:37;;;;;;;;;;;;;;;23.06;37.73;100911.41;30022690;29;96758;-64
2022/08/06 17:09:38;;;;;;;3.70;1.30;;;;;;;22.76;37.91;100919.66;30021481;29;97222;-63
2022/08/06 17:24:38;;;;;;;2.80;1.08;;;;;;;22.34;38.21;100925.06;30019761;29;98646;-63
2022/08/06 17:39:39;;;;;;;1.43;0.70;;;;;;;21.65;39.11;100917.97;30031276;29;97448;-63
2022/08/06 17:54:39;;;;;;;3.28;0.80;;;;;;;21.07;39.58;100933.53;30039157;29;96815;-64
2022/08/06 18:09:41;;;;;;;3.83;1.00;;;;;;;20.47;40.25;100928.56;30036896;29;96773;-64
2022/08/06 18:24:41;;;;;;;2.63;0.90;;;;;;;19.88;41.18;100934.06;30036991;29;97274;-63
2022/08/06 18:39:41;;;;;;;1.02;0.70;;;;;;;19.32;42.31;100943.50;30032846;29;100786;-64
2022/08/06 18:54:44;;;;;;;3.38;1.20;;;;;;;18.88;43.59;100961.19;30031712;29;96922;-64
2022/08/06 19:09:48;;;;;;;4.33;1.47;;;;;;;18.55;44.61;100961.94;30029698;29;97151;-64
2022/08/06 19:24:49;;;;;;;5.23;1.40;;;;;;;18.22;45.50;100958.13;30028706;29;97363;-64
2022/08/06 19:40:44;;;;;;;6.33;1.50;;;;;;;17.88;46.80;100961.69;30027607;29;97227;-64
2022/08/06 19:55:11;;;;;;;3.80;1.67;;;;;;;17.54;48.41;100961.47;30028024;29;98654;-64
2022/08/06 20:10:11;;;;;;;5.33;2.60;;;;;;;17.22;50.12;100973.66;30027769;29;96897;-63
2022/08/06 20:25:14;;;;;;;7.85;3.05;;;;;;;16.96;51.09;100968.91;30025100;29;97217;-64
2022/08/06 20:40:16;;;;;;;8.57;3.37;;;;;;;16.67;53.17;100981.44;30023193;29;96722;-65
2022/08/06 20:55:17;;;;;;;5.30;2.80;;;;;;;16.41;54.51;100996.25;30023272;29;97035;-65
2022/08/06 21:10:18;;;;;;;6.85;3.05;;;;;;;16.22;55.17;100995.84;30020470;29;96765;-65
2022/08/06 21:25:18;;;;;;;5.23;1.97;;;;;;;16.17;55.23;101018.91;30021287;29;96709;-65
2022/08/06 21:40:20;;;;;;;3.22;1.48;;;;;;;16.26;54.46;101027.72;30019372;29;97096;-65
2022/08/06 21:55:21;;;;;;;3.80;1.30;;;;;;;16.30;53.76;101031.69;30019879;29;97147;-65
2022/08/06 22:10:21;;;;;;;2.80;1.13;;;;;;;16.28;53.37;101031.03;30018310;29;96881;-65
2022/08/06 22:25:22;;;;;;;3.38;1.35;;;;;;;16.13;53.06;101039.97;30029120;29;96713;-65
2022/08/06 22:40:23;;;;;;;3.43;1.30;;;;;;;15.87;53.21;101038.56;30036450;29;96722;-65
2022/08/06 22:55:25;;;;;;;2.13;1.50;;;;;;;15.52;53.46;101046.25;30035454;29;96689;-65
2022/08/06 23:10:26;;;;;;;2.37;1.10;;;;;;;15.21;53.98;101057.94;30034216;29;96765;-64
2022/08/06 23:25:26;;;;;;;4.65;1.77;;;;;;;15.03;54.63;101054.72;30032762;29;96873;-64
2022/08/06 23:40:27;;;;;;;3.78;1.20;;;;;;;14.86;55.21;101054.00;30030072;29;96807;-64
2022/08/06 23:55:27;;;;;;;4.40;1.25;;;;;;;14.76;55.43;101048.81;30030403;29;96775;-65
